createdAt,value
2023-05-14T00:00:58.387Z,75.69
2023-05-14T00:02:00.253Z,76.22
2023-05-14T00:03:01.917Z,76.28
2023-05-14T00:04:04.269Z,76.42
2023-05-14T00:05:06.142Z,75.74
2023-05-14T00:06:08.128Z,75.97
2023-05-14T00:07:09.697Z,75.70
2023-05-14T00:08:11.162Z,76.18
2023-05-14T00:09:13.293Z,75.84
2023-05-14T00:10:14.839Z,76.23
2023-05-14T00:11:16.727Z,75.96
2023-05-14T00:12:18.186Z,76.11
2023-05-14T00:13:19.669Z,76.36
2023-05-14T00:14:21.300Z,76.51
2023-05-14T00:15:23.000Z,75.71
2023-05-14T00:16:24.441Z,75.79
2023-05-14T00:17:26.662Z,75.71
2023-05-14T00:18:28.272Z,75.74
2023-05-14T00:19:29.784Z,76.70
2023-05-14T00:20:31.296Z,75.91
2023-05-14T00:21:32.843Z,75.75
2023-05-14T00:22:34.932Z,75.39
2023-05-14T00:23:36.498Z,75.65
2023-05-14T00:24:37.986Z,75.79
2023-05-14T00:25:39.572Z,75.04
2023-05-14T00:26:41.314Z,75.50
2023-05-14T00:27:42.755Z,74.87
2023-05-14T00:28:44.347Z,74.98
2023-05-14T00:29:45.841Z,75.48
2023-05-14T00:30:47.355Z,74.94
2023-05-14T00:31:49.422Z,75.10
2023-05-14T00:32:51.065Z,74.97
2023-05-14T00:33:52.670Z,75.68
2023-05-14T00:34:54.153Z,75.17
2023-05-14T00:35:55.671Z,74.88
2023-05-14T00:36:57.469Z,74.95
2023-05-14T00:37:58.951Z,74.90
2023-05-14T00:39:00.433Z,74.59
2023-05-14T00:40:03.641Z,74.81
2023-05-14T00:41:05.165Z,74.96
2023-05-14T00:42:07.254Z,75.66
2023-05-14T00:43:08.721Z,75.20
2023-05-14T00:44:10.219Z,75.89
2023-05-14T00:45:11.722Z,76.13
2023-05-14T00:46:14.422Z,75.84
2023-05-14T00:47:16.012Z,75.50
2023-05-14T00:48:18.755Z,75.89
2023-05-14T00:49:21.141Z,75.73
2023-05-14T00:50:23.304Z,75.74
2023-05-14T00:51:25.558Z,75.36
2023-05-14T00:52:27.543Z,76.05
2023-05-14T00:53:29.138Z,76.01
2023-05-14T00:54:30.724Z,76.24
2023-05-14T00:55:32.464Z,75.83
2023-05-14T00:56:35.309Z,75.90
2023-05-14T00:57:37.587Z,76.32
2023-05-14T00:58:39.420Z,76.09
2023-05-14T00:59:42.535Z,76.19
2023-05-14T01:00:44.123Z,76.34
2023-05-14T01:01:45.713Z,76.09
2023-05-14T01:02:47.307Z,76.42
2023-05-14T01:03:49.260Z,76.56
2023-05-14T01:04:52.166Z,76.37
2023-05-14T01:05:53.516Z,76.72
2023-05-14T01:07:25.861Z,76.11
2023-05-14T01:08:41.308Z,76.49
2023-05-14T01:09:52.459Z,76.34
2023-05-14T01:11:15.785Z,76.08
2023-05-14T01:12:38.647Z,75.72
2023-05-14T01:14:06.969Z,75.54
2023-05-14T01:15:16.502Z,75.32
2023-05-14T01:16:20.055Z,75.68
2023-05-14T01:17:23.073Z,75.88
2023-05-14T01:18:25.363Z,75.38
2023-05-14T01:19:47.353Z,76.32
2023-05-14T01:20:52.663Z,76.10
2023-05-14T01:21:54.122Z,76.23
2023-05-14T01:22:55.608Z,76.06
2023-05-14T01:23:57.057Z,76.41
2023-05-14T01:24:58.641Z,76.22
2023-05-14T01:26:00.156Z,76.69
2023-05-14T01:27:17.599Z,76.71
2023-05-14T01:28:24.014Z,76.56
2023-05-14T01:29:28.845Z,76.60
2023-05-14T01:30:40.375Z,76.49
2023-05-14T01:31:45.533Z,76.66
2023-05-14T01:32:51.272Z,76.99
2023-05-14T01:33:54.727Z,76.79
2023-05-14T01:34:58.429Z,76.75
2023-05-14T01:36:00.549Z,76.22
2023-05-14T01:37:02.779Z,76.50
2023-05-14T01:38:07.322Z,76.38
2023-05-14T01:39:10.588Z,76.79
2023-05-14T01:40:12.882Z,76.87
2023-05-14T01:41:14.831Z,77.17
2023-05-14T01:42:16.495Z,77.25
2023-05-14T01:43:19.013Z,77.07
2023-05-14T01:44:21.529Z,77.21
2023-05-14T01:45:23.945Z,76.41
2023-05-14T01:46:25.584Z,76.58
2023-05-14T01:47:27.171Z,76.22
2023-05-14T01:48:30.427Z,76.73
2023-05-14T01:49:32.636Z,75.41
2023-05-14T01:50:34.285Z,76.70
2023-05-14T01:51:35.943Z,77.21
2023-05-14T01:52:37.761Z,76.93
2023-05-14T01:53:39.244Z,76.65
2023-05-14T01:54:40.922Z,76.74
2023-05-14T01:55:42.796Z,76.62
2023-05-14T01:56:44.243Z,76.59
2023-05-14T01:57:46.171Z,77.15
2023-05-14T01:58:48.075Z,76.65
2023-05-14T01:59:49.577Z,76.60
2023-05-14T02:00:51.146Z,76.81
2023-05-14T02:01:52.793Z,76.91
2023-05-14T02:02:54.529Z,76.56
2023-05-14T02:03:57.226Z,76.78
2023-05-14T02:04:59.196Z,77.18
2023-05-14T02:06:01.213Z,77.04
2023-05-14T02:07:05.374Z,77.31
2023-05-14T02:08:07.675Z,77.26
2023-05-14T02:09:09.272Z,76.74
2023-05-14T02:10:11.001Z,77.33
2023-05-14T02:11:12.605Z,77.13
2023-05-14T02:12:14.091Z,77.10
2023-05-14T02:13:17.579Z,77.42
2023-05-14T02:14:19.202Z,77.62
2023-05-14T02:15:20.721Z,77.51
2023-05-14T02:16:22.350Z,77.83
2023-05-14T02:17:26.051Z,77.44
2023-05-14T02:18:27.929Z,77.23
2023-05-14T02:19:30.232Z,76.75
2023-05-14T02:20:32.101Z,76.79
2023-05-14T02:21:33.659Z,76.93
2023-05-14T02:22:35.163Z,76.97
2023-05-14T02:23:41.453Z,77.04
2023-05-14T02:24:43.370Z,76.73
2023-05-14T02:25:44.913Z,77.35
2023-05-14T02:26:46.406Z,76.82
2023-05-14T02:27:47.905Z,77.00
2023-05-14T02:28:49.804Z,76.77
2023-05-14T02:29:51.286Z,76.95
2023-05-14T02:30:52.814Z,76.98
2023-05-14T02:31:54.470Z,76.72
2023-05-14T02:32:56.190Z,76.79
2023-05-14T02:33:58.116Z,76.77
2023-05-14T02:34:59.639Z,76.91
2023-05-14T02:36:01.167Z,76.71
2023-05-14T02:37:02.939Z,76.51
2023-05-14T02:38:04.499Z,76.93
2023-05-14T02:39:06.410Z,76.83
2023-05-14T02:40:08.649Z,77.27
2023-05-14T02:41:10.208Z,77.52
2023-05-14T02:42:11.696Z,77.45
2023-05-14T02:43:13.175Z,77.76
2023-05-14T02:44:14.686Z,77.89
2023-05-14T02:45:16.268Z,77.36
2023-05-14T02:46:17.843Z,77.11
2023-05-14T02:47:19.498Z,77.50
2023-05-14T02:48:21.222Z,78.10
2023-05-14T02:49:23.070Z,77.68
2023-05-14T02:50:24.814Z,77.82
2023-05-14T02:51:27.097Z,77.89
2023-05-14T02:52:28.608Z,77.91
2023-05-14T02:53:30.486Z,77.47
2023-05-14T02:54:31.941Z,77.53
2023-05-14T02:55:33.466Z,77.94
2023-05-14T02:56:35.008Z,78.07
2023-05-14T02:57:36.480Z,77.96
2023-05-14T02:58:38.473Z,78.22
2023-05-14T02:59:39.989Z,78.01
2023-05-14T03:00:41.812Z,77.72
2023-05-14T03:01:43.888Z,77.68
2023-05-14T03:02:46.023Z,77.74
2023-05-14T03:03:49.086Z,77.62
2023-05-14T03:04:51.290Z,77.57
2023-05-14T03:05:52.818Z,77.78
2023-05-14T03:06:54.349Z,77.54
2023-05-14T03:07:55.943Z,77.72
2023-05-14T03:08:57.424Z,77.74
2023-05-14T03:10:00.401Z,77.38
2023-05-14T03:11:01.952Z,77.83
2023-05-14T03:12:03.581Z,77.82
2023-05-14T03:13:05.121Z,77.94
2023-05-14T03:14:06.703Z,78.40
2023-05-14T03:15:09.115Z,77.88
2023-05-14T03:16:10.600Z,78.04
2023-05-14T03:17:12.219Z,78.44
2023-05-14T03:18:15.399Z,78.19
2023-05-14T03:19:16.921Z,78.24
2023-05-14T03:20:18.478Z,78.34
2023-05-14T03:21:20.113Z,79.00
2023-05-14T03:22:21.898Z,78.48
2023-05-14T03:23:23.698Z,78.56
2023-05-14T03:24:25.387Z,78.58
2023-05-14T03:25:26.977Z,78.74
2023-05-14T03:26:28.546Z,78.23
2023-05-14T03:27:29.955Z,79.06
2023-05-14T03:28:31.734Z,79.03
2023-05-14T03:29:33.177Z,78.69
2023-05-14T03:30:34.830Z,78.45
2023-05-14T03:31:36.907Z,78.29
2023-05-14T03:32:38.524Z,78.29
2023-05-14T03:33:40.809Z,78.14
2023-05-14T03:34:42.399Z,78.19
2023-05-14T03:35:43.841Z,77.81
2023-05-14T03:36:45.299Z,78.65
2023-05-14T03:37:46.773Z,78.47
2023-05-14T03:38:48.292Z,78.60
2023-05-14T03:39:49.735Z,78.67
2023-05-14T03:40:51.268Z,79.11
2023-05-14T03:41:52.834Z,79.15
2023-05-14T03:42:54.686Z,78.83
2023-05-14T03:43:56.134Z,78.94
2023-05-14T03:44:57.614Z,78.26
2023-05-14T03:45:59.072Z,78.96
2023-05-14T03:47:00.574Z,78.83
2023-05-14T03:48:02.511Z,78.68
2023-05-14T03:49:04.482Z,78.52
2023-05-14T03:50:07.149Z,78.46
2023-05-14T03:51:08.697Z,78.04
2023-05-14T03:52:10.386Z,78.14
2023-05-14T03:53:12.195Z,78.99
2023-05-14T03:54:13.634Z,78.53
2023-05-14T03:55:15.079Z,78.06
2023-05-14T03:56:16.556Z,78.67
2023-05-14T03:57:17.994Z,79.03
2023-05-14T03:58:19.536Z,78.99
2023-05-14T03:59:21.025Z,78.23
2023-05-14T04:00:22.759Z,78.11
2023-05-14T04:01:24.698Z,78.84
2023-05-14T04:02:26.751Z,78.37
2023-05-14T04:03:28.382Z,78.43
2023-05-14T04:04:30.015Z,78.73
2023-05-14T04:05:31.471Z,78.65
2023-05-14T04:06:33.420Z,78.65
2023-05-14T04:07:34.909Z,78.01
2023-05-14T04:08:36.340Z,78.48
2023-05-14T04:09:37.875Z,78.85
2023-05-14T04:10:39.358Z,78.99
2023-05-14T04:11:41.565Z,78.59
2023-05-14T04:12:43.425Z,78.54
2023-05-14T04:13:44.933Z,78.46
2023-05-14T04:14:46.488Z,77.92
2023-05-14T04:15:48.021Z,77.71
2023-05-14T04:16:49.759Z,77.92
2023-05-14T04:17:51.298Z,78.00
2023-05-14T04:18:52.767Z,77.96
2023-05-14T04:19:54.246Z,78.30
2023-05-14T04:20:55.748Z,78.19
2023-05-14T04:21:57.202Z,78.37
2023-05-14T04:22:59.032Z,78.59
2023-05-14T04:24:00.483Z,78.43
2023-05-14T04:25:02.104Z,78.26
2023-05-14T04:26:04.926Z,78.09
2023-05-14T04:27:06.963Z,77.90
2023-05-14T04:28:08.603Z,77.72
2023-05-14T04:29:10.058Z,78.15
2023-05-14T04:30:11.934Z,78.13
2023-05-14T04:31:13.582Z,78.00
2023-05-14T04:32:15.176Z,78.29
2023-05-14T04:33:16.919Z,78.11
2023-05-14T04:34:18.380Z,78.43
2023-05-14T04:35:22.640Z,77.91
2023-05-14T04:36:25.640Z,78.02
2023-05-14T04:37:27.487Z,78.02
2023-05-14T04:38:28.891Z,77.82
2023-05-14T04:39:30.398Z,78.05
2023-05-14T04:40:32.053Z,77.84
2023-05-14T04:41:33.460Z,77.94
2023-05-14T04:42:34.922Z,77.66
2023-05-14T04:43:36.350Z,77.65
2023-05-14T04:44:40.991Z,77.80
2023-05-14T04:45:43.103Z,77.26
2023-05-14T04:46:44.545Z,77.37
2023-05-14T04:47:46.713Z,77.69
2023-05-14T04:48:49.051Z,77.27
2023-05-14T04:49:50.582Z,77.35
2023-05-14T04:50:52.287Z,77.11
2023-05-14T04:51:53.755Z,76.28
2023-05-14T04:52:55.903Z,76.09
2023-05-14T04:53:57.326Z,75.69
2023-05-14T04:54:59.205Z,75.46
2023-05-14T04:56:01.051Z,74.87
2023-05-14T04:57:03.621Z,74.93
2023-05-14T04:58:05.309Z,74.37
2023-05-14T04:59:07.018Z,73.91
2023-05-14T05:00:10.046Z,73.98
2023-05-14T05:01:11.560Z,73.80
2023-05-14T05:02:13.059Z,73.68
2023-05-14T05:03:14.575Z,73.40
2023-05-14T05:04:16.386Z,74.16
2023-05-14T05:05:18.177Z,73.81
2023-05-14T05:06:19.943Z,73.23
2023-05-14T05:07:21.518Z,74.03
2023-05-14T05:08:23.205Z,74.32
2023-05-14T05:09:24.712Z,73.82
2023-05-14T05:10:26.418Z,73.65
2023-05-14T05:11:28.156Z,73.72
2023-05-14T05:12:30.250Z,74.32
2023-05-14T05:13:32.292Z,74.20
2023-05-14T05:14:33.812Z,73.10
2023-05-14T05:15:35.425Z,72.97
2023-05-14T05:16:37.265Z,72.96
2023-05-14T05:17:38.849Z,73.10
2023-05-14T05:18:42.650Z,73.45
2023-05-14T05:19:44.694Z,73.37
2023-05-14T05:20:46.315Z,72.96
2023-05-14T05:21:48.153Z,72.52
2023-05-14T05:22:49.596Z,72.31
2023-05-14T05:23:51.095Z,72.15
2023-05-14T05:24:52.582Z,72.73
2023-05-14T05:25:56.936Z,73.32
2023-05-14T05:26:58.804Z,73.71
2023-05-14T05:28:00.298Z,73.32
2023-05-14T05:29:01.957Z,73.06
2023-05-14T05:30:04.061Z,73.12
2023-05-14T05:31:08.431Z,73.39
2023-05-14T05:32:10.314Z,73.44
2023-05-14T05:33:14.657Z,73.33
2023-05-14T05:34:16.187Z,73.07
2023-05-14T05:35:17.619Z,73.32
2023-05-14T05:36:19.131Z,73.21
2023-05-14T05:37:20.628Z,73.69
2023-05-14T05:38:22.093Z,73.42
2023-05-14T05:39:23.597Z,72.74
2023-05-14T05:40:25.658Z,73.61
2023-05-14T05:41:27.583Z,73.69
2023-05-14T05:42:29.135Z,73.74
2023-05-14T05:43:30.827Z,73.72
2023-05-14T05:44:32.284Z,73.21
2023-05-14T05:45:34.093Z,73.12
2023-05-14T05:46:35.633Z,72.69
2023-05-14T05:47:37.258Z,72.51
2023-05-14T05:48:38.747Z,72.28
2023-05-14T05:49:40.335Z,72.08
2023-05-14T05:50:42.875Z,71.76
2023-05-14T05:51:44.304Z,72.63
2023-05-14T05:52:45.784Z,73.07
2023-05-14T05:53:47.224Z,73.26
2023-05-14T05:54:48.804Z,73.21
2023-05-14T05:55:51.689Z,73.03
2023-05-14T05:56:53.123Z,72.82
2023-05-14T05:57:54.467Z,72.69
2023-05-14T05:58:56.235Z,73.26
2023-05-14T05:59:58.105Z,73.28
2023-05-14T06:01:00.195Z,72.85
2023-05-14T06:02:01.718Z,72.60
2023-05-14T06:03:03.278Z,71.92
2023-05-14T06:04:06.373Z,72.29
2023-05-14T06:05:09.826Z,71.94
2023-05-14T06:06:11.341Z,71.04
2023-05-14T06:07:12.955Z,71.02
2023-05-14T06:08:14.415Z,70.48
2023-05-14T06:09:16.180Z,70.15
2023-05-14T06:10:17.747Z,70.51
2023-05-14T06:11:19.262Z,69.28
2023-05-14T06:12:21.744Z,68.01
2023-05-14T06:13:23.162Z,68.30
2023-05-14T06:14:25.190Z,68.24
2023-05-14T06:15:26.645Z,68.50
2023-05-14T06:16:28.251Z,68.92
2023-05-14T06:17:29.766Z,69.08
2023-05-14T06:18:31.412Z,69.25
2023-05-14T06:19:32.946Z,70.16
2023-05-14T06:20:34.446Z,69.94
2023-05-14T06:21:35.867Z,69.21
2023-05-14T06:22:37.879Z,68.68
2023-05-14T06:23:39.940Z,68.10
2023-05-14T06:24:41.393Z,68.58
2023-05-14T06:25:42.837Z,68.49
2023-05-14T06:26:44.336Z,68.33
2023-05-14T06:27:45.958Z,68.26
2023-05-14T06:28:47.400Z,67.52
2023-05-14T06:29:48.877Z,67.43
2023-05-14T06:30:50.919Z,67.89
2023-05-14T06:31:52.537Z,67.82
2023-05-14T06:32:54.649Z,67.54
2023-05-14T06:33:56.084Z,67.08
2023-05-14T06:34:57.550Z,67.41
2023-05-14T06:36:00.959Z,67.58
2023-05-14T06:37:04.180Z,67.61
2023-05-14T06:38:05.796Z,67.91
2023-05-14T06:39:07.246Z,67.45
2023-05-14T06:40:09.062Z,66.44
2023-05-14T06:41:10.946Z,66.01
2023-05-14T06:42:12.520Z,65.81
2023-05-14T06:43:14.014Z,65.85
2023-05-14T06:44:16.671Z,65.54
2023-05-14T06:45:18.278Z,65.09
2023-05-14T06:46:19.799Z,65.50
2023-05-14T06:47:21.254Z,64.91
2023-05-14T06:48:23.025Z,65.30
2023-05-14T06:49:24.589Z,64.93
2023-05-14T06:50:26.102Z,64.92
2023-05-14T06:51:27.771Z,65.26
2023-05-14T06:52:29.322Z,64.28
2023-05-14T06:53:31.294Z,63.95
2023-05-14T06:54:32.753Z,63.98
2023-05-14T06:55:34.631Z,63.02
2023-05-14T06:56:36.151Z,63.10
2023-05-14T06:57:40.485Z,62.58
2023-05-14T06:58:42.252Z,62.06
2023-05-14T06:59:43.690Z,62.02
2023-05-14T07:00:45.630Z,61.59
2023-05-14T07:01:47.264Z,61.84
2023-05-14T07:02:48.940Z,61.01
2023-05-14T07:03:50.533Z,61.16
2023-05-14T07:04:52.077Z,60.96
2023-05-14T07:05:53.835Z,60.76
2023-05-14T07:06:55.327Z,60.93
2023-05-14T07:07:57.004Z,60.95
2023-05-14T07:08:59.775Z,61.25
2023-05-14T07:10:01.545Z,61.64
2023-05-14T07:11:03.020Z,61.42
2023-05-14T07:12:05.057Z,61.10
2023-05-14T07:13:06.746Z,59.38
2023-05-14T07:14:08.196Z,59.35
2023-05-14T07:15:09.994Z,58.81
2023-05-14T07:16:11.570Z,59.13
2023-05-14T07:17:13.288Z,58.95
2023-05-14T07:18:14.786Z,59.34
2023-05-14T07:19:16.353Z,59.03
2023-05-14T07:20:18.202Z,59.03
2023-05-14T07:21:19.638Z,58.82
2023-05-14T07:22:21.758Z,58.69
2023-05-14T07:23:23.498Z,58.44
2023-05-14T07:24:25.024Z,58.16
2023-05-14T07:25:26.789Z,57.98
2023-05-14T07:26:28.216Z,57.37
2023-05-14T07:27:29.713Z,56.61
2023-05-14T07:28:31.148Z,56.83
2023-05-14T07:29:34.980Z,57.46
2023-05-14T07:30:37.012Z,57.20
2023-05-14T07:31:38.471Z,57.58
2023-05-14T07:32:40.113Z,57.79
2023-05-14T07:33:41.677Z,57.74
2023-05-14T07:34:43.177Z,57.84
2023-05-14T07:35:44.836Z,57.28
2023-05-14T07:36:46.855Z,56.01
2023-05-14T07:37:48.579Z,56.17
2023-05-14T07:38:50.087Z,57.15
2023-05-14T07:39:52.633Z,55.73
2023-05-14T07:40:54.470Z,56.02
2023-05-14T07:41:56.401Z,55.88
2023-05-14T07:42:57.859Z,55.75
2023-05-14T07:43:59.475Z,55.89
2023-05-14T07:45:01.375Z,56.53
2023-05-14T07:46:02.826Z,57.00
2023-05-14T07:47:04.736Z,56.79
2023-05-14T07:48:06.494Z,57.55
2023-05-14T07:49:08.263Z,57.50
2023-05-14T07:50:11.047Z,57.90
2023-05-14T07:51:12.533Z,58.18
2023-05-14T07:52:14.013Z,57.87
2023-05-14T07:53:15.945Z,58.19
2023-05-14T07:54:17.513Z,58.57
2023-05-14T07:55:19.948Z,59.03
2023-05-14T07:56:23.012Z,59.01
2023-05-14T07:57:24.532Z,58.98
2023-05-14T07:58:27.951Z,58.73
2023-05-14T07:59:32.181Z,58.91
2023-05-14T08:00:33.666Z,59.13
2023-05-14T08:01:36.735Z,59.48
2023-05-14T08:02:40.125Z,59.57
2023-05-14T08:03:41.991Z,59.75
2023-05-14T08:04:44.257Z,60.07
2023-05-14T08:05:45.933Z,60.34
2023-05-14T08:06:47.361Z,60.01
2023-05-14T08:07:48.904Z,60.37
2023-05-14T08:08:50.430Z,60.72
2023-05-14T08:09:52.166Z,60.86
2023-05-14T08:10:53.710Z,60.61
2023-05-14T08:11:55.205Z,60.91
2023-05-14T08:12:56.678Z,60.69
2023-05-14T08:13:58.116Z,60.93
2023-05-14T08:14:59.960Z,61.04
2023-05-14T08:16:01.411Z,60.55
2023-05-14T08:17:03.509Z,60.43
2023-05-14T08:18:05.135Z,60.63
2023-05-14T08:19:06.812Z,60.27
2023-05-14T08:20:09.116Z,60.72
2023-05-14T08:21:10.658Z,60.94
2023-05-14T08:22:12.401Z,60.56
2023-05-14T08:23:13.960Z,60.46
2023-05-14T08:24:15.584Z,60.34
2023-05-14T08:25:17.126Z,60.56
2023-05-14T08:26:18.652Z,60.55
2023-05-14T08:27:20.231Z,60.71
2023-05-14T08:28:21.697Z,60.91
2023-05-14T08:29:23.387Z,60.83
2023-05-14T08:30:25.464Z,61.31
2023-05-14T08:31:27.484Z,61.10
2023-05-14T08:32:29.675Z,60.85
2023-05-14T08:33:31.188Z,60.51
2023-05-14T08:34:32.949Z,60.90
2023-05-14T08:35:34.456Z,61.06
2023-05-14T08:36:36.044Z,61.23
2023-05-14T08:37:38.822Z,61.07
2023-05-14T08:38:40.803Z,61.29
2023-05-14T08:39:42.235Z,60.97
2023-05-14T08:40:55.796Z,61.17
2023-05-14T08:41:58.166Z,61.70
2023-05-14T08:43:00.770Z,61.85
2023-05-14T08:44:13.346Z,61.29
2023-05-14T08:45:25.750Z,61.23
2023-05-14T08:46:29.992Z,60.97
2023-05-14T08:47:31.664Z,61.08
2023-05-14T08:48:37.786Z,61.25
2023-05-14T08:49:41.876Z,61.16
2023-05-14T08:50:44.006Z,61.25
2023-05-14T08:51:49.472Z,61.22
2023-05-14T08:52:51.990Z,61.61
2023-05-14T08:53:53.626Z,61.72
2023-05-14T08:54:56.316Z,61.93
2023-05-14T08:55:58.967Z,61.90
2023-05-14T08:57:00.637Z,61.99
2023-05-14T08:58:02.192Z,61.85
2023-05-14T08:59:05.470Z,61.77
2023-05-14T09:00:13.800Z,61.47
2023-05-14T09:01:15.459Z,60.63
2023-05-14T09:02:19.280Z,60.45
2023-05-14T09:03:23.120Z,60.41
2023-05-14T09:04:25.366Z,60.13
2023-05-14T09:05:27.943Z,60.26
2023-05-14T09:06:30.824Z,60.09
2023-05-14T09:07:32.283Z,60.10
2023-05-14T09:08:34.764Z,60.13
2023-05-14T09:09:37.117Z,60.58
2023-05-14T09:10:40.264Z,60.56
2023-05-14T09:11:43.075Z,60.66
2023-05-14T09:12:44.608Z,60.48
2023-05-14T09:13:46.066Z,60.22
2023-05-14T09:14:48.896Z,59.77
2023-05-14T09:15:51.261Z,59.83
2023-05-14T09:16:53.047Z,59.42
2023-05-14T09:17:54.810Z,59.77
2023-05-14T09:18:56.393Z,59.90
2023-05-14T09:19:58.511Z,59.95
2023-05-14T09:21:00.410Z,59.93
2023-05-14T09:22:01.808Z,59.56
2023-05-14T09:23:03.264Z,59.76
2023-05-14T09:24:04.846Z,59.70
2023-05-14T09:25:09.800Z,59.91
2023-05-14T09:26:11.822Z,59.80
2023-05-14T09:27:20.741Z,59.68
2023-05-14T09:28:22.818Z,60.04
2023-05-14T09:29:26.169Z,59.69
2023-05-14T09:30:27.939Z,59.42
2023-05-14T09:31:31.477Z,59.95
2023-05-14T09:32:40.488Z,59.56
2023-05-14T09:33:42.057Z,59.05
2023-05-14T09:34:43.919Z,59.40
2023-05-14T09:35:47.046Z,59.55
2023-05-14T09:36:48.585Z,59.90
2023-05-14T09:37:54.533Z,59.59
2023-05-14T09:39:00.542Z,59.07
2023-05-14T09:40:09.331Z,59.00
2023-05-14T09:41:11.225Z,58.40
2023-05-14T09:42:12.739Z,57.89
2023-05-14T09:43:14.202Z,57.85
2023-05-14T09:44:15.761Z,58.04
2023-05-14T09:45:17.841Z,58.44
2023-05-14T09:46:19.315Z,58.21
2023-05-14T09:47:21.046Z,57.93
2023-05-14T09:48:22.990Z,57.44
2023-05-14T09:49:24.532Z,57.69
2023-05-14T09:50:26.694Z,57.75
2023-05-14T09:51:31.757Z,57.49
2023-05-14T09:52:33.756Z,57.38
2023-05-14T09:53:35.691Z,56.97
2023-05-14T09:54:37.581Z,56.49
2023-05-14T09:55:41.981Z,56.52
2023-05-14T09:56:44.159Z,56.36
2023-05-14T09:57:45.719Z,56.28
2023-05-14T09:58:47.161Z,56.02
2023-05-14T09:59:48.819Z,55.69
2023-05-14T10:00:51.377Z,55.30
2023-05-14T10:01:53.676Z,55.04
2023-05-14T10:02:56.793Z,55.28
2023-05-14T10:03:58.788Z,54.20
2023-05-14T10:05:03.027Z,53.89
2023-05-14T10:06:06.762Z,54.24
2023-05-14T10:07:08.615Z,54.45
2023-05-14T10:08:14.581Z,54.66
2023-05-14T10:09:18.885Z,54.16
2023-05-14T10:10:21.956Z,54.56
2023-05-14T10:11:27.755Z,54.19
2023-05-14T10:12:34.374Z,53.98
2023-05-14T10:13:42.426Z,53.85
2023-05-14T10:14:49.637Z,54.24
2023-05-14T10:16:09.660Z,54.70
2023-05-14T10:17:18.311Z,53.96
2023-05-14T10:18:22.028Z,54.17
2023-05-14T10:19:25.024Z,54.71
2023-05-14T10:20:27.706Z,54.51
2023-05-14T10:21:31.853Z,54.68
2023-05-14T10:22:34.977Z,55.46
2023-05-14T10:23:38.129Z,55.25
2023-05-14T10:24:40.389Z,54.82
2023-05-14T10:25:42.545Z,54.82
2023-05-14T10:26:45.266Z,54.89
2023-05-14T10:27:47.024Z,54.99
2023-05-14T10:28:48.798Z,54.78
2023-05-14T10:29:55.181Z,55.74
2023-05-14T10:30:56.797Z,55.72
2023-05-14T10:31:58.268Z,56.03
2023-05-14T10:33:12.444Z,56.02
2023-05-14T10:34:41.232Z,54.82
2023-05-14T10:36:03.167Z,54.70
2023-05-14T10:37:06.991Z,55.09
2023-05-14T10:38:08.854Z,54.95
2023-05-14T10:39:10.318Z,54.70
2023-05-14T10:40:13.001Z,54.78
2023-05-14T10:41:17.821Z,54.25
2023-05-14T10:42:37.451Z,54.12
2023-05-14T10:43:40.950Z,54.96
2023-05-14T10:45:09.927Z,55.58
2023-05-14T10:46:13.830Z,55.19
2023-05-14T10:47:17.697Z,54.46
2023-05-14T10:48:19.972Z,54.72
2023-05-14T10:49:36.165Z,55.20
2023-05-14T10:50:43.524Z,55.57
2023-05-14T10:51:49.503Z,54.52
2023-05-14T10:52:52.030Z,54.45
2023-05-14T10:53:54.646Z,54.52
2023-05-14T10:55:00.654Z,54.40
2023-05-14T10:56:09.490Z,54.52
2023-05-14T10:57:11.737Z,54.05
2023-05-14T10:58:13.655Z,54.44
2023-05-14T10:59:17.370Z,54.73
2023-05-14T11:00:19.083Z,55.10
2023-05-14T11:01:24.112Z,55.35
2023-05-14T11:02:29.423Z,56.25
2023-05-14T11:03:34.437Z,55.09
2023-05-14T11:04:36.667Z,55.22
2023-05-14T11:05:41.067Z,53.93
2023-05-14T11:06:43.257Z,53.70
2023-05-14T11:07:46.624Z,53.73
2023-05-14T11:08:51.050Z,54.47
2023-05-14T11:09:53.729Z,54.02
2023-05-14T11:10:56.201Z,51.84
2023-05-14T11:11:57.717Z,51.73
2023-05-14T11:12:59.609Z,51.94
2023-05-14T11:14:01.109Z,51.94
2023-05-14T11:15:06.638Z,51.71
2023-05-14T11:16:21.990Z,50.16
2023-05-14T11:17:29.614Z,51.10
2023-05-14T11:18:33.629Z,51.74
2023-05-14T11:19:35.227Z,51.91
2023-05-14T11:20:36.691Z,50.12
2023-05-14T11:21:38.362Z,49.79
2023-05-14T11:22:42.361Z,50.34
2023-05-14T11:23:46.743Z,50.58
2023-05-14T11:24:48.606Z,50.51
2023-05-14T11:25:52.178Z,50.16
2023-05-14T11:26:55.771Z,49.45
2023-05-14T11:27:58.840Z,49.86
2023-05-14T11:29:00.325Z,50.58
2023-05-14T11:30:04.131Z,51.32
2023-05-14T11:31:05.780Z,51.83
2023-05-14T11:32:07.618Z,51.97
2023-05-14T11:33:09.247Z,52.03
2023-05-14T11:34:10.979Z,51.20
2023-05-14T11:35:13.400Z,51.25
2023-05-14T11:36:14.868Z,50.62
2023-05-14T11:37:16.972Z,50.04
2023-05-14T11:38:20.306Z,50.32
2023-05-14T11:39:21.852Z,50.37
2023-05-14T11:40:23.762Z,51.43
2023-05-14T11:41:28.040Z,51.23
2023-05-14T11:42:29.572Z,50.20
2023-05-14T11:43:31.082Z,50.18
2023-05-14T11:44:32.879Z,49.95
2023-05-14T11:45:34.859Z,51.10
2023-05-14T11:46:36.417Z,50.93
2023-05-14T11:47:38.189Z,50.19
2023-05-14T11:48:39.642Z,49.74
2023-05-14T11:49:41.582Z,49.84
2023-05-14T11:50:47.314Z,50.28
2023-05-14T11:51:48.797Z,51.28
2023-05-14T11:52:51.036Z,52.42
2023-05-14T11:53:54.281Z,52.61
2023-05-14T11:54:55.857Z,51.54
2023-05-14T11:55:58.027Z,50.61
2023-05-14T11:57:01.947Z,50.65
2023-05-14T11:58:03.486Z,49.90
2023-05-14T11:59:05.185Z,49.64
2023-05-14T12:00:13.577Z,49.68
2023-05-14T12:01:15.777Z,49.68
2023-05-14T12:02:19.220Z,50.38
2023-05-14T12:03:25.692Z,49.60
2023-05-14T12:04:29.227Z,48.98
2023-05-14T12:05:30.820Z,49.14
2023-05-14T12:06:32.531Z,49.16
2023-05-14T12:07:34.050Z,49.71
2023-05-14T12:08:37.666Z,48.97
2023-05-14T12:09:50.016Z,49.09
2023-05-14T12:10:53.306Z,48.69
2023-05-14T12:11:54.750Z,48.14
2023-05-14T12:12:56.235Z,47.63
2023-05-14T12:14:01.348Z,47.57
2023-05-14T12:15:10.308Z,46.99
2023-05-14T12:16:13.851Z,47.04
2023-05-14T12:17:18.131Z,47.12
2023-05-14T12:18:24.479Z,47.73
2023-05-14T12:19:26.661Z,47.59
2023-05-14T12:20:29.698Z,47.66
2023-05-14T12:21:32.022Z,47.92
2023-05-14T12:22:36.931Z,48.79
2023-05-14T12:23:39.026Z,48.71
2023-05-14T12:24:40.570Z,48.79
2023-05-14T12:25:51.304Z,48.75
2023-05-14T12:26:52.887Z,48.54
2023-05-14T12:27:54.345Z,48.86
2023-05-14T12:29:03.924Z,48.92
2023-05-14T12:30:19.946Z,49.49
2023-05-14T12:31:32.380Z,49.81
2023-05-14T12:32:35.635Z,50.22
2023-05-14T12:33:37.093Z,49.68
2023-05-14T12:34:38.984Z,50.42
2023-05-14T12:35:41.297Z,50.42
2023-05-14T12:36:43.737Z,50.01
2023-05-14T12:37:45.490Z,49.47
2023-05-14T12:38:47.022Z,49.70
2023-05-14T12:39:48.654Z,50.14
2023-05-14T12:40:50.116Z,51.11
2023-05-14T12:41:51.613Z,51.38
2023-05-14T12:42:54.383Z,51.46
2023-05-14T12:43:57.013Z,51.71
2023-05-14T12:44:59.677Z,50.58
2023-05-14T12:46:01.204Z,49.60
2023-05-14T12:47:02.841Z,49.41
2023-05-14T12:48:04.383Z,49.31
2023-05-14T12:49:06.943Z,49.20
2023-05-14T12:50:08.774Z,49.22
2023-05-14T12:51:10.311Z,49.98
2023-05-14T12:53:16.385Z,48.91
2023-05-14T12:54:17.841Z,48.47
2023-05-14T12:55:19.722Z,48.19
2023-05-14T12:56:21.993Z,48.01
2023-05-14T12:57:23.474Z,47.58
2023-05-14T12:58:24.932Z,50.14
2023-05-14T12:59:26.411Z,51.46
2023-05-14T13:00:28.321Z,50.89
2023-05-14T13:01:29.848Z,48.62
2023-05-14T13:02:31.947Z,46.84
2023-05-14T13:03:33.746Z,48.15
2023-05-14T13:04:35.415Z,47.43
2023-05-14T13:05:37.453Z,47.35
2023-05-14T13:06:39.709Z,46.04
2023-05-14T13:07:41.275Z,46.18
2023-05-14T13:08:43.821Z,46.27
2023-05-14T13:09:45.374Z,46.51
2023-05-14T13:10:47.617Z,47.03
2023-05-14T13:11:49.049Z,45.78
2023-05-14T13:12:52.631Z,44.83
2023-05-14T13:13:54.117Z,45.05
2023-05-14T13:14:55.569Z,45.44
2023-05-14T13:15:57.109Z,42.94
2023-05-14T13:16:58.818Z,43.62
2023-05-14T13:18:00.781Z,44.27
2023-05-14T13:19:02.413Z,44.94
2023-05-14T13:20:04.814Z,45.31
2023-05-14T13:21:06.500Z,45.22
2023-05-14T13:22:07.950Z,44.73
2023-05-14T13:23:09.808Z,44.93
2023-05-14T13:24:11.314Z,45.38
2023-05-14T13:25:13.176Z,44.71
2023-05-14T13:26:15.624Z,45.19
2023-05-14T13:27:17.098Z,45.47
2023-05-14T13:28:18.592Z,45.11
2023-05-14T13:29:20.048Z,44.28